»·PEaware :: AAL225 KLAS-KBUR

AAL225 :: KLAS-KBUR

FLIGHT INFORMATION

Flight Status: Arrived
Operator:
American Airlines
More flights by this operator :: More flights under this callsign
Pilot: Michael R. (16974)
Aircraft: AIRBUS A320
(A320)
More flights by this aircraft type
Origin: KLAS McCarran Intl
United States
Destination: KBUR Bob Hope-Burbank
United States
More flights between these airports :: More routes between these airports
Route: BOACH8 WHIGG KREME JANNY5
File this flight plan on PilotEdge
Remarks:
Altitude:
(Current/Filed)
22,000ft
Speed:
(Current/Filed)
446kts
Departed: 24-Jul-18 09:31 PM
Arrived: 24-Jul-18 10:11 PM
Distance/Time
Traveled:
193nm/0:40
Distance/Time
To Go:
Arrived

Flight Plot

Page will automatically refresh every two minutes.

Flight plan parsing failed; only flown route is shown


Map Options




Map Legend


Flown Route
Filed Route
Departure Airport
Arrival Airport
Navaid (VOR, NDB)
Fix

Horizontal Profiles

Position Reports

Time Latitude Longitude Heading Altitude Ground
Speed
24-Jul-18 21:01 36.080889 -115.136758 33 2150ft 0kts
24-Jul-18 21:02 36.080889 -115.136758 33 2150ft 0kts
24-Jul-18 21:03 36.080889 -115.136758 33 2150ft 0kts
24-Jul-18 21:04 36.080889 -115.136758 33 2150ft 0kts
24-Jul-18 21:05 36.080889 -115.136758 33 2150ft 0kts
24-Jul-18 21:06 36.080889 -115.136758 33 2150ft 0kts
24-Jul-18 21:07 36.080889 -115.136758 33 2150ft 0kts
24-Jul-18 21:08 36.080889 -115.136758 33 2150ft 0kts
24-Jul-18 21:09 36.080889 -115.136758 33 2150ft 0kts
24-Jul-18 21:10 36.080889 -115.136758 33 2150ft 0kts
24-Jul-18 21:11 36.080889 -115.136758 33 2150ft 0kts
24-Jul-18 21:12 36.080889 -115.136758 33 2150ft 0kts
24-Jul-18 21:13 36.080889 -115.136758 33 2150ft 0kts
24-Jul-18 21:14 36.080889 -115.136758 33 2150ft 0kts
24-Jul-18 21:15 36.080889 -115.136758 33 2150ft 0kts
24-Jul-18 21:16 36.080889 -115.136758 33 2150ft 0kts
24-Jul-18 21:17 36.080889 -115.136758 33 2150ft 0kts
24-Jul-18 21:18 36.080889 -115.136759 33 2150ft 0kts
24-Jul-18 21:19 36.080572 -115.136975 28 2150ft 2kts
24-Jul-18 21:20 36.080156 -115.137397 74 2150ft 2kts
24-Jul-18 21:21 36.080146 -115.137614 101 2150ft 0kts
24-Jul-18 21:22 36.080146 -115.137614 101 2150ft 0kts
24-Jul-18 21:23 36.080146 -115.137614 101 2150ft 0kts
24-Jul-18 21:24 36.080146 -115.137614 101 2150ft 0kts
24-Jul-18 21:25 36.079119 -115.136139 134 2150ft 18kts
24-Jul-18 21:26 36.078921 -115.135888 134 2150ft 0kts
24-Jul-18 21:27 36.078464 -115.135318 132 2150ft 12kts
24-Jul-18 21:28 36.077544 -115.131291 91 2150ft 14kts
24-Jul-18 21:29 36.077540 -115.125319 89 2150ft 24kts
24-Jul-18 21:30 36.077446 -115.121498 129 2150ft 0kts
24-Jul-18 21:31 36.076435 -115.122399 268 2150ft 0kts
24-Jul-18 21:32 36.076492 -115.145766 269 2310ft 191kts
24-Jul-18 21:33 36.076266 -115.225911 256 5202ft 265kts
24-Jul-18 21:34 36.018150 -115.280299 199 8043ft 288kts
24-Jul-18 21:35 35.939762 -115.305526 185 10834ft 315kts
24-Jul-18 21:36 35.846761 -115.313889 177 11893ft 380kts
24-Jul-18 21:37 35.740459 -115.301720 175 14190ft 388kts
24-Jul-18 21:38 35.645071 -115.339757 226 17121ft 374kts
24-Jul-18 21:39 35.574702 -115.434139 226 19540ft 380kts
24-Jul-18 21:40 35.502330 -115.530293 224 21800ft 383kts
24-Jul-18 21:41 35.421103 -115.626921 223 22059ft 432kts
24-Jul-18 21:42 35.336910 -115.726791 223 22057ft 453kts
24-Jul-18 21:43 35.246426 -115.833688 223 22049ft 453kts
24-Jul-18 21:44 35.170927 -115.922673 223 22042ft 453kts
24-Jul-18 21:45 35.065384 -116.046678 223 22042ft 453kts
24-Jul-18 21:46 34.974429 -116.153173 222 22053ft 456kts
24-Jul-18 21:47 34.897884 -116.272502 242 22044ft 469kts
24-Jul-18 21:48 34.854358 -116.384783 242 22018ft 471kts
24-Jul-18 21:49 34.798492 -116.528845 245 22015ft 472kts
24-Jul-18 21:50 34.775771 -116.677235 260 22015ft 476kts
24-Jul-18 21:51 34.760596 -116.833311 260 21976ft 473kts
24-Jul-18 21:52 34.745379 -116.985092 260 20902ft 440kts
24-Jul-18 21:53 34.727935 -117.155767 259 20227ft 434kts
24-Jul-18 21:54 34.715449 -117.276533 259 19773ft 431kts
24-Jul-18 21:55 34.700457 -117.420083 259 19217ft 427kts
24-Jul-18 21:56 34.685522 -117.561162 259 17795ft 416kts
24-Jul-18 21:57 34.671464 -117.693276 259 16156ft 405kts
24-Jul-18 21:58 34.657426 -117.825075 260 14529ft 395kts
24-Jul-18 21:59 34.643348 -117.954934 260 12386ft 383kts
24-Jul-18 22:00 34.628200 -118.078376 253 10826ft 348kts
24-Jul-18 22:01 34.604818 -118.183289 252 10248ft 298kts
24-Jul-18 22:02 34.584239 -118.275632 251 9214ft 277kts
24-Jul-18 22:03 34.564569 -118.363635 251 8161ft 259kts
24-Jul-18 22:04 34.536478 -118.442537 212 7840ft 257kts
24-Jul-18 22:05 34.476533 -118.489977 211 6773ft 265kts
24-Jul-18 22:06 34.414527 -118.538051 210 5971ft 257kts
24-Jul-18 22:07 34.345498 -118.542531 172 5090ft 256kts
24-Jul-18 22:08 34.280313 -118.534378 172 4957ft 230kts
24-Jul-18 22:09 34.235499 -118.481727 123 4239ft 238kts
24-Jul-18 22:10 34.205930 -118.414776 116 2346ft 216kts
24-Jul-18 22:11 34.197563 -118.354599 90 786ft 79kts
24-Jul-18 22:12 34.197114 -118.350183 173 786ft 0kts

Navigation Log

Ident Type
Flight plan parsing failed, navigation log unavailable